sensor_id;sensor_type;location;lat;lon;timestamp;P1;durP1;ratioP1;P2;durP2;ratioP2
8319;SDS011;4197;42.130;24.746;2023-11-21T00:00:05;4.30;;;2.70;;
8319;SDS011;4197;42.130;24.746;2023-11-21T00:02:39;3.33;;;2.37;;
8319;SDS011;4197;42.130;24.746;2023-11-21T00:05:10;3.90;;;2.63;;
8319;SDS011;4197;42.130;24.746;2023-11-21T00:07:40;4.63;;;2.50;;
8319;SDS011;4197;42.130;24.746;2023-11-21T00:10:09;2.87;;;2.30;;
8319;SDS011;4197;42.130;24.746;2023-11-21T00:12:41;2.77;;;2.47;;
8319;SDS011;4197;42.130;24.746;2023-11-21T00:15:10;4.10;;;2.50;;
8319;SDS011;4197;42.130;24.746;2023-11-21T00:17:41;3.80;;;2.50;;
8319;SDS011;4197;42.130;24.746;2023-11-21T00:20:11;6.63;;;2.70;;
8319;SDS011;4197;42.130;24.746;2023-11-21T00:22:40;4.03;;;2.37;;
8319;SDS011;4197;42.130;24.746;2023-11-21T00:25:09;4.10;;;2.90;;
8319;SDS011;4197;42.130;24.746;2023-11-21T00:27:38;5.60;;;2.63;;
8319;SDS011;4197;42.130;24.746;2023-11-21T00:30:07;4.37;;;3.03;;
8319;SDS011;4197;42.130;24.746;2023-11-21T00:32:36;3.47;;;2.40;;
8319;SDS011;4197;42.130;24.746;2023-11-21T00:35:05;5.00;;;2.73;;
8319;SDS011;4197;42.130;24.746;2023-11-21T00:37:35;5.20;;;2.50;;
8319;SDS011;4197;42.130;24.746;2023-11-21T00:40:06;3.87;;;2.50;;
8319;SDS011;4197;42.130;24.746;2023-11-21T00:42:38;5.23;;;3.03;;
8319;SDS011;4197;42.130;24.746;2023-11-21T00:45:07;3.03;;;2.47;;
8319;SDS011;4197;42.130;24.746;2023-11-21T00:47:36;12.07;;;2.40;;
8319;SDS011;4197;42.130;24.746;2023-11-21T00:50:05;2.67;;;2.00;;
8319;SDS011;4197;42.130;24.746;2023-11-21T00:52:36;3.57;;;2.40;;
8319;SDS011;4197;42.130;24.746;2023-11-21T00:55:05;4.07;;;2.27;;
8319;SDS011;4197;42.130;24.746;2023-11-21T00:57:34;3.57;;;2.30;;
8319;SDS011;4197;42.130;24.746;2023-11-21T01:00:04;6.90;;;2.80;;
8319;SDS011;4197;42.130;24.746;2023-11-21T01:02:36;5.77;;;2.87;;
8319;SDS011;4197;42.130;24.746;2023-11-21T01:05:05;7.33;;;3.40;;
8319;SDS011;4197;42.130;24.746;2023-11-21T01:07:37;7.83;;;3.63;;
8319;SDS011;4197;42.130;24.746;2023-11-21T01:10:06;7.70;;;3.67;;
8319;SDS011;4197;42.130;24.746;2023-11-21T01:12:36;6.33;;;3.87;;
8319;SDS011;4197;42.130;24.746;2023-11-21T01:15:05;7.93;;;3.87;;
8319;SDS011;4197;42.130;24.746;2023-11-21T01:17:35;7.13;;;4.00;;
8319;SDS011;4197;42.130;24.746;2023-11-21T01:20:05;5.50;;;3.87;;
8319;SDS011;4197;42.130;24.746;2023-11-21T01:22:40;7.73;;;4.20;;
8319;SDS011;4197;42.130;24.746;2023-11-21T01:25:10;7.17;;;4.00;;
8319;SDS011;4197;42.130;24.746;2023-11-21T01:27:38;7.07;;;4.20;;
8319;SDS011;4197;42.130;24.746;2023-11-21T01:30:07;6.27;;;4.37;;
8319;SDS011;4197;42.130;24.746;2023-11-21T01:32:37;6.10;;;4.67;;
8319;SDS011;4197;42.130;24.746;2023-11-21T01:35:06;5.73;;;3.97;;
8319;SDS011;4197;42.130;24.746;2023-11-21T01:37:36;8.50;;;4.67;;
8319;SDS011;4197;42.130;24.746;2023-11-21T01:40:07;6.87;;;4.47;;
8319;SDS011;4197;42.130;24.746;2023-11-21T01:42:40;5.90;;;4.10;;
8319;SDS011;4197;42.130;24.746;2023-11-21T01:45:10;7.50;;;4.10;;
8319;SDS011;4197;42.130;24.746;2023-11-21T01:47:39;5.10;;;3.87;;
8319;SDS011;4197;42.130;24.746;2023-11-21T01:50:09;5.90;;;4.33;;
8319;SDS011;4197;42.130;24.746;2023-11-21T01:52:42;5.43;;;4.23;;
8319;SDS011;4197;42.130;24.746;2023-11-21T01:55:14;6.00;;;4.50;;
8319;SDS011;4197;42.130;24.746;2023-11-21T01:57:54;6.67;;;4.67;;
8319;SDS011;4197;42.130;24.746;2023-11-21T02:00:22;20.63;;;9.07;;
8319;SDS011;4197;42.130;24.746;2023-11-21T02:02:52;8.80;;;5.30;;
8319;SDS011;4197;42.130;24.746;2023-11-21T02:05:21;9.83;;;5.43;;
8319;SDS011;4197;42.130;24.746;2023-11-21T02:07:50;10.43;;;5.80;;
8319;SDS011;4197;42.130;24.746;2023-11-21T02:10:20;11.57;;;6.20;;
8319;SDS011;4197;42.130;24.746;2023-11-21T02:12:51;9.70;;;6.10;;
8319;SDS011;4197;42.130;24.746;2023-11-21T02:15:19;5.83;;;5.07;;
8319;SDS011;4197;42.130;24.746;2023-11-21T02:17:48;9.20;;;5.60;;
8319;SDS011;4197;42.130;24.746;2023-11-21T02:20:19;10.27;;;6.50;;
8319;SDS011;4197;42.130;24.746;2023-11-21T02:22:51;12.60;;;5.77;;
8319;SDS011;4197;42.130;24.746;2023-11-21T02:25:25;12.17;;;6.23;;
8319;SDS011;4197;42.130;24.746;2023-11-21T02:27:55;9.60;;;6.17;;
8319;SDS011;4197;42.130;24.746;2023-11-21T02:30:24;11.50;;;6.07;;
8319;SDS011;4197;42.130;24.746;2023-11-21T02:32:54;9.20;;;5.93;;
8319;SDS011;4197;42.130;24.746;2023-11-21T02:35:24;9.50;;;6.10;;
8319;SDS011;4197;42.130;24.746;2023-11-21T02:37:54;10.60;;;5.83;;
8319;SDS011;4197;42.130;24.746;2023-11-21T02:40:23;8.13;;;6.00;;
8319;SDS011;4197;42.130;24.746;2023-11-21T02:42:53;8.47;;;6.57;;
8319;SDS011;4197;42.130;24.746;2023-11-21T02:45:26;12.37;;;6.13;;
8319;SDS011;4197;42.130;24.746;2023-11-21T02:47:54;10.97;;;6.80;;
8319;SDS011;4197;42.130;24.746;2023-11-21T02:50:24;10.40;;;6.53;;
8319;SDS011;4197;42.130;24.746;2023-11-21T02:52:55;10.63;;;6.37;;
8319;SDS011;4197;42.130;24.746;2023-11-21T02:55:27;8.23;;;5.97;;
8319;SDS011;4197;42.130;24.746;2023-11-21T02:57:56;9.63;;;5.60;;
8319;SDS011;4197;42.130;24.746;2023-11-21T03:00:24;10.07;;;7.00;;
8319;SDS011;4197;42.130;24.746;2023-11-21T03:02:53;8.87;;;6.93;;
8319;SDS011;4197;42.130;24.746;2023-11-21T03:05:24;15.83;;;10.10;;
8319;SDS011;4197;42.130;24.746;2023-11-21T03:07:52;13.77;;;8.43;;
8319;SDS011;4197;42.130;24.746;2023-11-21T03:10:22;12.77;;;6.90;;
8319;SDS011;4197;42.130;24.746;2023-11-21T03:12:50;8.97;;;6.23;;
8319;SDS011;4197;42.130;24.746;2023-11-21T03:15:19;11.70;;;6.70;;
8319;SDS011;4197;42.130;24.746;2023-11-21T03:17:47;12.67;;;7.53;;
8319;SDS011;4197;42.130;24.746;2023-11-21T03:20:17;10.80;;;6.73;;
8319;SDS011;4197;42.130;24.746;2023-11-21T03:22:45;10.47;;;6.47;;
8319;SDS011;4197;42.130;24.746;2023-11-21T03:25:13;9.77;;;6.73;;
8319;SDS011;4197;42.130;24.746;2023-11-21T03:27:45;12.50;;;6.87;;
8319;SDS011;4197;42.130;24.746;2023-11-21T03:30:13;10.33;;;7.40;;
8319;SDS011;4197;42.130;24.746;2023-11-21T03:32:43;11.00;;;7.20;;
8319;SDS011;4197;42.130;24.746;2023-11-21T03:35:11;11.40;;;7.07;;
8319;SDS011;4197;42.130;24.746;2023-11-21T03:37:40;16.07;;;8.13;;
8319;SDS011;4197;42.130;24.746;2023-11-21T03:40:09;10.30;;;7.63;;
8319;SDS011;4197;42.130;24.746;2023-11-21T03:42:39;7.83;;;5.33;;
8319;SDS011;4197;42.130;24.746;2023-11-21T03:45:10;8.77;;;4.83;;
8319;SDS011;4197;42.130;24.746;2023-11-21T03:47:39;6.60;;;4.70;;
8319;SDS011;4197;42.130;24.746;2023-11-21T03:50:08;12.43;;;7.27;;
8319;SDS011;4197;42.130;24.746;2023-11-21T03:52:38;10.77;;;6.67;;
8319;SDS011;4197;42.130;24.746;2023-11-21T03:55:06;10.43;;;6.93;;
8319;SDS011;4197;42.130;24.746;2023-11-21T03:57:35;14.93;;;9.27;;
8319;SDS011;4197;42.130;24.746;2023-11-21T04:00:04;21.97;;;15.73;;
8319;SDS011;4197;42.130;24.746;2023-11-21T04:02:36;26.43;;;19.20;;
8319;SDS011;4197;42.130;24.746;2023-11-21T04:05:06;31.17;;;19.37;;
8319;SDS011;4197;42.130;24.746;2023-11-21T04:07:36;23.90;;;15.27;;
8319;SDS011;4197;42.130;24.746;2023-11-21T04:10:05;15.47;;;10.50;;
8319;SDS011;4197;42.130;24.746;2023-11-21T04:12:36;12.80;;;10.33;;
8319;SDS011;4197;42.130;24.746;2023-11-21T04:15:04;16.77;;;11.67;;
8319;SDS011;4197;42.130;24.746;2023-11-21T04:17:36;21.00;;;14.00;;
8319;SDS011;4197;42.130;24.746;2023-11-21T04:20:06;21.37;;;13.77;;
8319;SDS011;4197;42.130;24.746;2023-11-21T04:22:37;20.83;;;12.50;;
8319;SDS011;4197;42.130;24.746;2023-11-21T04:25:11;13.50;;;8.57;;
8319;SDS011;4197;42.130;24.746;2023-11-21T04:27:41;17.40;;;9.87;;
8319;SDS011;4197;42.130;24.746;2023-11-21T04:30:11;13.53;;;9.30;;
8319;SDS011;4197;42.130;24.746;2023-11-21T04:32:42;18.30;;;10.13;;
8319;SDS011;4197;42.130;24.746;2023-11-21T04:35:10;23.53;;;12.10;;
8319;SDS011;4197;42.130;24.746;2023-11-21T04:37:38;15.10;;;9.10;;
8319;SDS011;4197;42.130;24.746;2023-11-21T04:40:07;15.40;;;9.67;;
8319;SDS011;4197;42.130;24.746;2023-11-21T04:42:36;13.53;;;8.10;;
8319;SDS011;4197;42.130;24.746;2023-11-21T04:45:08;11.27;;;7.90;;
8319;SDS011;4197;42.130;24.746;2023-11-21T04:47:39;13.37;;;7.63;;
8319;SDS011;4197;42.130;24.746;2023-11-21T04:50:09;16.70;;;8.43;;
8319;SDS011;4197;42.130;24.746;2023-11-21T04:52:38;14.10;;;8.03;;
8319;SDS011;4197;42.130;24.746;2023-11-21T04:55:06;11.00;;;6.97;;
8319;SDS011;4197;42.130;24.746;2023-11-21T04:57:37;12.73;;;8.10;;
8319;SDS011;4197;42.130;24.746;2023-11-21T05:00:09;15.73;;;8.30;;
8319;SDS011;4197;42.130;24.746;2023-11-21T05:02:38;15.77;;;8.50;;
8319;SDS011;4197;42.130;24.746;2023-11-21T05:05:07;13.73;;;7.97;;
8319;SDS011;4197;42.130;24.746;2023-11-21T05:07:38;14.33;;;8.63;;
8319;SDS011;4197;42.130;24.746;2023-11-21T05:10:07;14.53;;;7.33;;
8319;SDS011;4197;42.130;24.746;2023-11-21T05:12:41;11.47;;;7.03;;
8319;SDS011;4197;42.130;24.746;2023-11-21T05:15:10;15.23;;;8.70;;
8319;SDS011;4197;42.130;24.746;2023-11-21T05:17:42;19.60;;;10.13;;
8319;SDS011;4197;42.130;24.746;2023-11-21T05:20:13;13.37;;;9.17;;
8319;SDS011;4197;42.130;24.746;2023-11-21T05:22:44;21.67;;;9.23;;
8319;SDS011;4197;42.130;24.746;2023-11-21T05:25:13;34.30;;;10.43;;
8319;SDS011;4197;42.130;24.746;2023-11-21T05:27:42;20.23;;;10.03;;
8319;SDS011;4197;42.130;24.746;2023-11-21T05:30:10;18.63;;;10.20;;
8319;SDS011;4197;42.130;24.746;2023-11-21T05:32:39;18.43;;;10.00;;
8319;SDS011;4197;42.130;24.746;2023-11-21T05:35:10;16.10;;;9.20;;
8319;SDS011;4197;42.130;24.746;2023-11-21T05:37:44;18.07;;;9.23;;
8319;SDS011;4197;42.130;24.746;2023-11-21T05:40:13;17.97;;;10.03;;
8319;SDS011;4197;42.130;24.746;2023-11-21T05:42:43;22.40;;;10.40;;
8319;SDS011;4197;42.130;24.746;2023-11-21T05:45:12;26.20;;;11.13;;
8319;SDS011;4197;42.130;24.746;2023-11-21T05:47:41;37.00;;;12.83;;
8319;SDS011;4197;42.130;24.746;2023-11-21T05:50:13;22.70;;;13.77;;
8319;SDS011;4197;42.130;24.746;2023-11-21T05:52:44;22.97;;;13.67;;
8319;SDS011;4197;42.130;24.746;2023-11-21T05:55:15;28.17;;;12.90;;
8319;SDS011;4197;42.130;24.746;2023-11-21T05:57:43;40.53;;;20.03;;
8319;SDS011;4197;42.130;24.746;2023-11-21T06:00:13;31.73;;;16.10;;
8319;SDS011;4197;42.130;24.746;2023-11-21T06:02:48;28.57;;;17.03;;
8319;SDS011;4197;42.130;24.746;2023-11-21T06:05:21;36.87;;;16.43;;
8319;SDS011;4197;42.130;24.746;2023-11-21T06:07:53;38.73;;;19.33;;
8319;SDS011;4197;42.130;24.746;2023-11-21T06:10:25;28.47;;;16.77;;
8319;SDS011;4197;42.130;24.746;2023-11-21T06:12:55;20.87;;;11.30;;
8319;SDS011;4197;42.130;24.746;2023-11-21T06:15:29;24.73;;;12.50;;
8319;SDS011;4197;42.130;24.746;2023-11-21T06:17:57;25.07;;;11.17;;
8319;SDS011;4197;42.130;24.746;2023-11-21T06:20:26;19.47;;;11.57;;
8319;SDS011;4197;42.130;24.746;2023-11-21T06:22:56;23.50;;;11.80;;
8319;SDS011;4197;42.130;24.746;2023-11-21T06:25:25;20.60;;;10.87;;
8319;SDS011;4197;42.130;24.746;2023-11-21T06:27:53;17.53;;;9.53;;
8319;SDS011;4197;42.130;24.746;2023-11-21T06:30:23;17.97;;;9.10;;
8319;SDS011;4197;42.130;24.746;2023-11-21T06:32:51;13.00;;;9.63;;
8319;SDS011;4197;42.130;24.746;2023-11-21T06:35:20;11.23;;;8.23;;
8319;SDS011;4197;42.130;24.746;2023-11-21T06:37:49;14.77;;;9.23;;
8319;SDS011;4197;42.130;24.746;2023-11-21T06:40:20;15.10;;;8.70;;
8319;SDS011;4197;42.130;24.746;2023-11-21T06:42:48;17.77;;;9.60;;
8319;SDS011;4197;42.130;24.746;2023-11-21T06:45:17;16.33;;;9.90;;
8319;SDS011;4197;42.130;24.746;2023-11-21T06:47:47;14.37;;;9.80;;
8319;SDS011;4197;42.130;24.746;2023-11-21T06:50:15;15.67;;;8.87;;
8319;SDS011;4197;42.130;24.746;2023-11-21T06:52:44;19.53;;;8.90;;
8319;SDS011;4197;42.130;24.746;2023-11-21T06:55:12;16.30;;;9.00;;
8319;SDS011;4197;42.130;24.746;2023-11-21T06:57:44;20.87;;;10.17;;
8319;SDS011;4197;42.130;24.746;2023-11-21T07:00:15;23.73;;;10.23;;
8319;SDS011;4197;42.130;24.746;2023-11-21T07:02:45;22.00;;;9.50;;
8319;SDS011;4197;42.130;24.746;2023-11-21T07:05:15;14.73;;;8.07;;
8319;SDS011;4197;42.130;24.746;2023-11-21T07:07:47;16.00;;;8.83;;
8319;SDS011;4197;42.130;24.746;2023-11-21T07:10:16;14.67;;;8.97;;
8319;SDS011;4197;42.130;24.746;2023-11-21T07:12:46;20.87;;;9.83;;
8319;SDS011;4197;42.130;24.746;2023-11-21T07:15:14;16.30;;;9.47;;
8319;SDS011;4197;42.130;24.746;2023-11-21T07:17:42;17.97;;;9.23;;
8319;SDS011;4197;42.130;24.746;2023-11-21T07:20:11;12.33;;;9.13;;
8319;SDS011;4197;42.130;24.746;2023-11-21T07:22:40;16.83;;;9.07;;
8319;SDS011;4197;42.130;24.746;2023-11-21T07:25:08;18.00;;;9.47;;
8319;SDS011;4197;42.130;24.746;2023-11-21T07:27:37;14.90;;;8.70;;
8319;SDS011;4197;42.130;24.746;2023-11-21T07:30:07;21.27;;;8.70;;
8319;SDS011;4197;42.130;24.746;2023-11-21T07:32:37;22.57;;;14.63;;
8319;SDS011;4197;42.130;24.746;2023-11-21T07:35:07;19.73;;;14.07;;
8319;SDS011;4197;42.130;24.746;2023-11-21T07:37:36;40.17;;;25.13;;
8319;SDS011;4197;42.130;24.746;2023-11-21T07:40:05;22.83;;;14.30;;
8319;SDS011;4197;42.130;24.746;2023-11-21T07:42:35;16.20;;;9.33;;
8319;SDS011;4197;42.130;24.746;2023-11-21T07:45:04;13.60;;;8.00;;
8319;SDS011;4197;42.130;24.746;2023-11-21T07:47:35;13.43;;;8.17;;
8319;SDS011;4197;42.130;24.746;2023-11-21T07:50:06;28.27;;;17.23;;
8319;SDS011;4197;42.130;24.746;2023-11-21T07:52:35;15.97;;;11.70;;
8319;SDS011;4197;42.130;24.746;2023-11-21T07:55:04;18.77;;;9.20;;
8319;SDS011;4197;42.130;24.746;2023-11-21T07:57:34;22.70;;;9.37;;
8319;SDS011;4197;42.130;24.746;2023-11-21T08:00:02;18.53;;;11.20;;
8319;SDS011;4197;42.130;24.746;2023-11-21T08:02:34;13.10;;;7.97;;
8319;SDS011;4197;42.130;24.746;2023-11-21T08:05:03;15.13;;;10.30;;
8319;SDS011;4197;42.130;24.746;2023-11-21T08:07:31;18.80;;;11.50;;
8319;SDS011;4197;42.130;24.746;2023-11-21T08:09:59;17.23;;;9.20;;
8319;SDS011;4197;42.130;24.746;2023-11-21T08:12:28;15.10;;;8.37;;
8319;SDS011;4197;42.130;24.746;2023-11-21T08:14:56;17.77;;;8.70;;
8319;SDS011;4197;42.130;24.746;2023-11-21T08:17:24;16.50;;;8.73;;
8319;SDS011;4197;42.130;24.746;2023-11-21T08:19:54;12.97;;;7.80;;
8319;SDS011;4197;42.130;24.746;2023-11-21T08:22:22;14.40;;;7.93;;
8319;SDS011;4197;42.130;24.746;2023-11-21T08:24:51;20.07;;;8.50;;
8319;SDS011;4197;42.130;24.746;2023-11-21T08:27:23;14.10;;;8.47;;
8319;SDS011;4197;42.130;24.746;2023-11-21T08:29:51;16.67;;;8.83;;
8319;SDS011;4197;42.130;24.746;2023-11-21T08:32:19;11.57;;;8.13;;
8319;SDS011;4197;42.130;24.746;2023-11-21T08:34:48;15.93;;;8.27;;
8319;SDS011;4197;42.130;24.746;2023-11-21T08:37:20;20.53;;;8.53;;
8319;SDS011;4197;42.130;24.746;2023-11-21T08:39:48;19.90;;;7.30;;
8319;SDS011;4197;42.130;24.746;2023-11-21T08:42:16;11.40;;;7.47;;
8319;SDS011;4197;42.130;24.746;2023-11-21T08:44:45;13.60;;;7.97;;
8319;SDS011;4197;42.130;24.746;2023-11-21T08:47:13;14.53;;;7.87;;
8319;SDS011;4197;42.130;24.746;2023-11-21T08:49:42;10.83;;;7.17;;
8319;SDS011;4197;42.130;24.746;2023-11-21T08:52:10;8.73;;;5.70;;
8319;SDS011;4197;42.130;24.746;2023-11-21T08:54:40;15.50;;;6.93;;
8319;SDS011;4197;42.130;24.746;2023-11-21T08:57:10;13.50;;;7.17;;
8319;SDS011;4197;42.130;24.746;2023-11-21T08:59:38;13.07;;;6.83;;
8319;SDS011;4197;42.130;24.746;2023-11-21T09:02:07;14.13;;;7.23;;
8319;SDS011;4197;42.130;24.746;2023-11-21T09:04:35;21.80;;;7.23;;
8319;SDS011;4197;42.130;24.746;2023-11-21T09:07:07;13.70;;;6.47;;
8319;SDS011;4197;42.130;24.746;2023-11-21T09:09:36;13.17;;;7.03;;
8319;SDS011;4197;42.130;24.746;2023-11-21T09:12:06;13.73;;;6.80;;
8319;SDS011;4197;42.130;24.746;2023-11-21T09:14:38;11.87;;;7.10;;
8319;SDS011;4197;42.130;24.746;2023-11-21T09:17:07;15.30;;;6.83;;
8319;SDS011;4197;42.130;24.746;2023-11-21T09:19:38;8.47;;;6.33;;
8319;SDS011;4197;42.130;24.746;2023-11-21T09:22:06;9.20;;;6.30;;
8319;SDS011;4197;42.130;24.746;2023-11-21T09:24:35;13.30;;;6.53;;
8319;SDS011;4197;42.130;24.746;2023-11-21T09:27:07;11.97;;;6.60;;
8319;SDS011;4197;42.130;24.746;2023-11-21T09:29:36;9.20;;;6.53;;
8319;SDS011;4197;42.130;24.746;2023-11-21T09:32:05;11.47;;;6.63;;
8319;SDS011;4197;42.130;24.746;2023-11-21T09:34:34;13.90;;;6.90;;
8319;SDS011;4197;42.130;24.746;2023-11-21T09:37:05;10.43;;;7.10;;
8319;SDS011;4197;42.130;24.746;2023-11-21T09:39:34;10.37;;;6.17;;
8319;SDS011;4197;42.130;24.746;2023-11-21T09:42:04;11.27;;;6.97;;
8319;SDS011;4197;42.130;24.746;2023-11-21T09:44:43;10.40;;;6.47;;
8319;SDS011;4197;42.130;24.746;2023-11-21T09:47:15;12.00;;;6.63;;
8319;SDS011;4197;42.130;24.746;2023-11-21T09:49:45;13.80;;;7.13;;
8319;SDS011;4197;42.130;24.746;2023-11-21T09:52:17;11.27;;;6.67;;
8319;SDS011;4197;42.130;24.746;2023-11-21T09:54:52;11.83;;;6.40;;
8319;SDS011;4197;42.130;24.746;2023-11-21T09:57:25;10.00;;;6.57;;
8319;SDS011;4197;42.130;24.746;2023-11-21T09:59:55;12.10;;;7.10;;
8319;SDS011;4197;42.130;24.746;2023-11-21T10:02:28;14.57;;;6.87;;
8319;SDS011;4197;42.130;24.746;2023-11-21T10:04:58;15.63;;;7.10;;
8319;SDS011;4197;42.130;24.746;2023-11-21T10:07:27;12.87;;;6.67;;
8319;SDS011;4197;42.130;24.746;2023-11-21T10:09:59;12.07;;;7.23;;
8319;SDS011;4197;42.130;24.746;2023-11-21T10:12:31;15.30;;;7.37;;
8319;SDS011;4197;42.130;24.746;2023-11-21T10:15:02;13.13;;;7.00;;
8319;SDS011;4197;42.130;24.746;2023-11-21T10:17:35;15.43;;;6.73;;
8319;SDS011;4197;42.130;24.746;2023-11-21T10:20:10;9.90;;;6.13;;
8319;SDS011;4197;42.130;24.746;2023-11-21T10:22:40;11.57;;;6.53;;
8319;SDS011;4197;42.130;24.746;2023-11-21T10:25:09;8.17;;;6.30;;
8319;SDS011;4197;42.130;24.746;2023-11-21T10:27:42;13.73;;;7.70;;
8319;SDS011;4197;42.130;24.746;2023-11-21T10:30:11;12.80;;;7.20;;
8319;SDS011;4197;42.130;24.746;2023-11-21T10:32:39;14.57;;;6.80;;
8319;SDS011;4197;42.130;24.746;2023-11-21T10:35:08;11.70;;;7.00;;
8319;SDS011;4197;42.130;24.746;2023-11-21T10:37:38;11.63;;;6.35;;
8319;SDS011;4197;42.130;24.746;2023-11-21T10:40:07;13.40;;;6.70;;
8319;SDS011;4197;42.130;24.746;2023-11-21T10:42:39;10.32;;;7.10;;
8319;SDS011;4197;42.130;24.746;2023-11-21T10:45:12;11.17;;;7.73;;
8319;SDS011;4197;42.130;24.746;2023-11-21T10:47:41;14.37;;;7.83;;
8319;SDS011;4197;42.130;24.746;2023-11-21T10:50:11;14.50;;;7.40;;
8319;SDS011;4197;42.130;24.746;2023-11-21T10:52:39;9.70;;;6.70;;
8319;SDS011;4197;42.130;24.746;2023-11-21T10:55:16;11.17;;;7.00;;
8319;SDS011;4197;42.130;24.746;2023-11-21T10:57:48;12.65;;;7.15;;
8319;SDS011;4197;42.130;24.746;2023-11-21T11:00:20;20.98;;;8.00;;
8319;SDS011;4197;42.130;24.746;2023-11-21T11:02:50;16.77;;;7.45;;
8319;SDS011;4197;42.130;24.746;2023-11-21T11:05:20;13.80;;;7.57;;
8319;SDS011;4197;42.130;24.746;2023-11-21T11:07:50;16.38;;;6.95;;
8319;SDS011;4197;42.130;24.746;2023-11-21T11:10:21;11.05;;;6.50;;
8319;SDS011;4197;42.130;24.746;2023-11-21T11:12:53;12.50;;;6.85;;
8319;SDS011;4197;42.130;24.746;2023-11-21T11:15:23;16.80;;;6.90;;
8319;SDS011;4197;42.130;24.746;2023-11-21T11:17:52;18.38;;;7.30;;
8319;SDS011;4197;42.130;24.746;2023-11-21T11:20:25;39.50;;;9.67;;
8319;SDS011;4197;42.130;24.746;2023-11-21T11:23:08;43.15;;;9.25;;
8319;SDS011;4197;42.130;24.746;2023-11-21T11:25:53;12.05;;;6.85;;
8319;SDS011;4197;42.130;24.746;2023-11-21T11:28:35;13.15;;;6.55;;
8319;SDS011;4197;42.130;24.746;2023-11-21T11:31:14;12.02;;;7.60;;
8319;SDS011;4197;42.130;24.746;2023-11-21T11:33:57;13.70;;;7.45;;
8319;SDS011;4197;42.130;24.746;2023-11-21T11:36:31;26.67;;;7.77;;
8319;SDS011;4197;42.130;24.746;2023-11-21T11:42:03;15.73;;;7.50;;
8319;SDS011;4197;42.130;24.746;2023-11-21T11:44:46;14.27;;;7.63;;
8319;SDS011;4197;42.130;24.746;2023-11-21T11:47:21;21.02;;;7.45;;
8319;SDS011;4197;42.130;24.746;2023-11-21T11:50:03;17.07;;;6.53;;
8319;SDS011;4197;42.130;24.746;2023-11-21T11:52:35;23.93;;;15.07;;
8319;SDS011;4197;42.130;24.746;2023-11-21T11:55:06;25.43;;;15.47;;
8319;SDS011;4197;42.130;24.746;2023-11-21T11:57:40;28.03;;;15.03;;
8319;SDS011;4197;42.130;24.746;2023-11-21T12:00:10;35.97;;;16.17;;
8319;SDS011;4197;42.130;24.746;2023-11-21T12:02:50;14.00;;;9.63;;
8319;SDS011;4197;42.130;24.746;2023-11-21T12:05:20;13.03;;;7.97;;
8319;SDS011;4197;42.130;24.746;2023-11-21T12:07:50;12.00;;;7.00;;
8319;SDS011;4197;42.130;24.746;2023-11-21T12:10:22;14.00;;;7.60;;
8319;SDS011;4197;42.130;24.746;2023-11-21T12:12:53;13.97;;;8.17;;
8319;SDS011;4197;42.130;24.746;2023-11-21T12:15:22;18.57;;;10.27;;
8319;SDS011;4197;42.130;24.746;2023-11-21T12:17:53;16.77;;;9.53;;
8319;SDS011;4197;42.130;24.746;2023-11-21T12:20:22;13.20;;;8.60;;
8319;SDS011;4197;42.130;24.746;2023-11-21T12:22:51;12.17;;;7.57;;
8319;SDS011;4197;42.130;24.746;2023-11-21T12:25:21;13.47;;;8.10;;
8319;SDS011;4197;42.130;24.746;2023-11-21T12:27:50;16.67;;;9.53;;
8319;SDS011;4197;42.130;24.746;2023-11-21T12:30:20;10.13;;;7.30;;
8319;SDS011;4197;42.130;24.746;2023-11-21T12:32:50;15.23;;;8.33;;
8319;SDS011;4197;42.130;24.746;2023-11-21T12:35:21;15.27;;;8.00;;
8319;SDS011;4197;42.130;24.746;2023-11-21T12:37:52;13.27;;;8.23;;
8319;SDS011;4197;42.130;24.746;2023-11-21T12:40:24;10.33;;;7.03;;
8319;SDS011;4197;42.130;24.746;2023-11-21T12:42:53;14.33;;;7.70;;
8319;SDS011;4197;42.130;24.746;2023-11-21T12:45:22;13.60;;;8.20;;
8319;SDS011;4197;42.130;24.746;2023-11-21T12:47:54;10.07;;;7.50;;
8319;SDS011;4197;42.130;24.746;2023-11-21T12:50:28;15.90;;;6.87;;
8319;SDS011;4197;42.130;24.746;2023-11-21T12:52:58;11.00;;;6.77;;
8319;SDS011;4197;42.130;24.746;2023-11-21T12:55:30;11.77;;;7.27;;
8319;SDS011;4197;42.130;24.746;2023-11-21T12:58:00;13.17;;;6.50;;
8319;SDS011;4197;42.130;24.746;2023-11-21T13:00:36;9.87;;;5.90;;
8319;SDS011;4197;42.130;24.746;2023-11-21T13:03:06;9.43;;;6.57;;
8319;SDS011;4197;42.130;24.746;2023-11-21T13:05:40;10.53;;;5.53;;
8319;SDS011;4197;42.130;24.746;2023-11-21T13:08:14;8.17;;;5.27;;
8319;SDS011;4197;42.130;24.746;2023-11-21T13:10:47;7.67;;;4.80;;
8319;SDS011;4197;42.130;24.746;2023-11-21T13:13:17;13.00;;;6.10;;
8319;SDS011;4197;42.130;24.746;2023-11-21T13:15:50;15.43;;;7.20;;
8319;SDS011;4197;42.130;24.746;2023-11-21T13:18:19;11.37;;;5.87;;
8319;SDS011;4197;42.130;24.746;2023-11-21T13:20:50;6.40;;;4.13;;
8319;SDS011;4197;42.130;24.746;2023-11-21T13:23:22;11.10;;;4.70;;
8319;SDS011;4197;42.130;24.746;2023-11-21T13:25:51;6.67;;;4.17;;
8319;SDS011;4197;42.130;24.746;2023-11-21T13:28:30;7.27;;;4.70;;
8319;SDS011;4197;42.130;24.746;2023-11-21T13:31:00;4.87;;;3.87;;
8319;SDS011;4197;42.130;24.746;2023-11-21T13:33:37;6.67;;;3.73;;
8319;SDS011;4197;42.130;24.746;2023-11-21T13:36:09;6.43;;;4.60;;
8319;SDS011;4197;42.130;24.746;2023-11-21T13:38:37;8.13;;;4.53;;
8319;SDS011;4197;42.130;24.746;2023-11-21T13:41:09;9.30;;;4.77;;
8319;SDS011;4197;42.130;24.746;2023-11-21T13:43:41;7.73;;;4.27;;
8319;SDS011;4197;42.130;24.746;2023-11-21T13:46:14;7.07;;;4.60;;
8319;SDS011;4197;42.130;24.746;2023-11-21T13:48:48;11.00;;;6.07;;
8319;SDS011;4197;42.130;24.746;2023-11-21T13:51:24;7.87;;;5.27;;
8319;SDS011;4197;42.130;24.746;2023-11-21T13:54:04;7.77;;;4.77;;
8319;SDS011;4197;42.130;24.746;2023-11-21T13:56:36;7.20;;;5.87;;
8319;SDS011;4197;42.130;24.746;2023-11-21T13:59:06;10.37;;;6.07;;
8319;SDS011;4197;42.130;24.746;2023-11-21T14:01:45;15.53;;;5.67;;
8319;SDS011;4197;42.130;24.746;2023-11-21T14:04:23;12.53;;;7.47;;
8319;SDS011;4197;42.130;24.746;2023-11-21T14:07:23;14.27;;;6.10;;
8319;SDS011;4197;42.130;24.746;2023-11-21T14:10:02;12.00;;;7.07;;
8319;SDS011;4197;42.130;24.746;2023-11-21T14:12:34;15.47;;;7.53;;
8319;SDS011;4197;42.130;24.746;2023-11-21T14:15:06;14.63;;;8.07;;
8319;SDS011;4197;42.130;24.746;2023-11-21T14:17:51;15.87;;;10.13;;
8319;SDS011;4197;42.130;24.746;2023-11-21T14:20:19;15.80;;;7.90;;
8319;SDS011;4197;42.130;24.746;2023-11-21T14:22:49;13.20;;;8.00;;
8319;SDS011;4197;42.130;24.746;2023-11-21T14:25:18;16.93;;;8.13;;
8319;SDS011;4197;42.130;24.746;2023-11-21T14:27:49;17.97;;;8.67;;
8319;SDS011;4197;42.130;24.746;2023-11-21T14:30:18;15.37;;;8.77;;
8319;SDS011;4197;42.130;24.746;2023-11-21T14:32:49;15.83;;;9.57;;
8319;SDS011;4197;42.130;24.746;2023-11-21T14:35:17;23.23;;;11.53;;
8319;SDS011;4197;42.130;24.746;2023-11-21T14:37:46;24.33;;;12.63;;
8319;SDS011;4197;42.130;24.746;2023-11-21T14:40:15;18.53;;;11.03;;
8319;SDS011;4197;42.130;24.746;2023-11-21T14:42:48;18.40;;;11.73;;
8319;SDS011;4197;42.130;24.746;2023-11-21T14:45:18;19.63;;;14.27;;
8319;SDS011;4197;42.130;24.746;2023-11-21T14:47:47;25.97;;;15.13;;
8319;SDS011;4197;42.130;24.746;2023-11-21T14:50:24;23.93;;;12.67;;
8319;SDS011;4197;42.130;24.746;2023-11-21T14:53:18;20.63;;;15.67;;
8319;SDS011;4197;42.130;24.746;2023-11-21T14:56:09;21.77;;;14.67;;
8319;SDS011;4197;42.130;24.746;2023-11-21T14:58:37;18.87;;;13.00;;
8319;SDS011;4197;42.130;24.746;2023-11-21T15:01:07;19.83;;;12.50;;
8319;SDS011;4197;42.130;24.746;2023-11-21T15:03:37;21.23;;;12.07;;
8319;SDS011;4197;42.130;24.746;2023-11-21T15:06:13;22.23;;;11.90;;
8319;SDS011;4197;42.130;24.746;2023-11-21T15:08:53;27.43;;;12.13;;
8319;SDS011;4197;42.130;24.746;2023-11-21T15:11:40;17.77;;;11.37;;